Página principal
METAR-TAF:

METAR-TAF

Aeroportos :

Aeroporto Internacional Yoff-Léopold Sédar Senghor

Dakar, Senegal

latitude: 14-44N, longitude: 017-30W, altura: 27 m

Observação actual do tempo

O boletim foi feito há 1 hora e 16 minutos, às 10:00 UTC
Vento 8 kt de sul
Temperatura 28°C
Humidade 79%
Pressão 1013 hPa
Visibilidade 10 km ou mais
Poucas nuvensa uma altura de 1300 ft

METAR: GOOY 231000Z 18008KT 9999 FEW013 28/24 Q1013

Hora: 11:16 (11:16 UTC)

Previsão

O boletim foi feito há 5 horas e 46 minutos, às 05:30 UTC
Previsão válida de 23 às 06 UTC a 24 às 12 UTC
Vento 6 kt de sul
Visibilidade 10 km ou mais
Nuvens dispersasa uma altura de 1300 ft

TAF: GOOY 230530Z 2306/2412 19006KT 9999 SCT013

Observações e previsões do tempo de mais de 4000 aeroportos (mensagens METAR e TAF).

As estações disponíveis são os pontos amarelos e vermelhos sobre o mapa.

Mova o rato sobre o mapa para ver o nome da estação.

Depois clique no ponto para visualizar as observações e previsões meteorológicas.

Para alterar o mapa : clique nos botões verdes com uma cruz preta para aumentar o zoom; no botão verde com uma pitada de zoom; ou nas setas verdes para mapas adjacentes.


METAR-TAF: